createdAt,value
2022-09-23T00:01:10.183Z,10.40
2022-09-23T00:03:41.825Z,10.40
2022-09-23T00:06:11.684Z,10.50
2022-09-23T00:08:39.556Z,10.50
2022-09-23T00:11:15.142Z,10.60
2022-09-23T00:13:44.060Z,10.60
2022-09-23T00:16:17.296Z,10.70
2022-09-23T00:18:44.647Z,10.70
2022-09-23T00:21:14.545Z,10.70
2022-09-23T00:23:43.021Z,10.70
2022-09-23T00:26:13.932Z,10.60
2022-09-23T00:28:40.856Z,10.60
2022-09-23T00:31:11.154Z,10.50
2022-09-23T00:33:38.374Z,10.50
2022-09-23T00:36:07.536Z,10.50
2022-09-23T00:38:34.766Z,10.50
2022-09-23T00:41:03.745Z,10.40
2022-09-23T00:43:58.409Z,10.40
2022-09-23T00:46:41.344Z,10.30
2022-09-23T00:49:25.863Z,10.40
2022-09-23T00:52:00.740Z,10.40
2022-09-23T00:54:29.434Z,10.40
2022-09-23T00:56:57.549Z,10.30
2022-09-23T00:59:26.181Z,10.10
2022-09-23T01:01:55.640Z,9.90
2022-09-23T01:04:24.665Z,9.90
2022-09-23T01:06:51.561Z,10.00
2022-09-23T01:09:19.319Z,9.90
2022-09-23T01:12:04.224Z,10.00
2022-09-23T01:14:34.430Z,10.00
2022-09-23T01:17:47.637Z,10.00
2022-09-23T01:20:35.590Z,9.90
2022-09-23T01:23:23.885Z,9.80
2022-09-23T01:26:12.991Z,9.70
2022-09-23T01:28:55.879Z,9.70
2022-09-23T01:31:43.284Z,9.70
2022-09-23T01:34:31.488Z,9.70
2022-09-23T01:37:11.740Z,9.80
2022-09-23T01:40:01.838Z,9.70
2022-09-23T01:42:46.311Z,9.60
2022-09-23T01:45:35.727Z,9.60
2022-09-23T01:48:19.256Z,9.40
2022-09-23T01:51:02.124Z,9.50
2022-09-23T01:53:37.912Z,9.60
2022-09-23T01:56:20.143Z,9.40
2022-09-23T01:59:12.747Z,9.40
2022-09-23T02:01:48.237Z,9.30
2022-09-23T02:04:39.764Z,9.40
2022-09-23T02:07:48.207Z,9.30
2022-09-23T02:10:25.720Z,9.30
2022-09-23T02:12:57.969Z,9.40
2022-09-23T02:15:32.906Z,9.30
2022-09-23T02:18:10.046Z,9.40
2022-09-23T02:20:40.012Z,9.30
2022-09-23T02:23:19.266Z,9.30
2022-09-23T02:26:03.004Z,9.30
2022-09-23T02:29:02.193Z,9.30
2022-09-23T02:31:41.001Z,9.20
2022-09-23T02:34:16.388Z,9.10
2022-09-23T02:37:06.719Z,9.10
2022-09-23T02:39:53.848Z,9.10
2022-09-23T02:42:46.334Z,9.10
2022-09-23T02:45:13.491Z,9.10
2022-09-23T02:47:44.311Z,9.10
2022-09-23T02:50:11.392Z,9.10
2022-09-23T02:52:38.827Z,9.10
2022-09-23T02:55:08.705Z,9.10
2022-09-23T02:57:35.810Z,9.00
2022-09-23T03:00:03.542Z,9.00
2022-09-23T03:02:56.104Z,9.00
2022-09-23T03:05:32.309Z,8.90
2022-09-23T03:08:07.602Z,8.90
2022-09-23T03:10:53.145Z,8.90
2022-09-23T03:13:31.621Z,8.90
2022-09-23T03:16:13.448Z,8.90
2022-09-23T03:18:51.569Z,8.90
2022-09-23T03:21:30.651Z,8.90
2022-09-23T03:24:01.614Z,9.00
2022-09-23T03:26:33.454Z,8.90
2022-09-23T03:29:05.092Z,8.90
2022-09-23T03:31:34.111Z,8.90
2022-09-23T03:34:05.282Z,8.90
2022-09-23T03:36:51.685Z,8.90
2022-09-23T03:39:32.955Z,8.70
2022-09-23T03:42:08.009Z,8.60
2022-09-23T03:44:39.701Z,8.60
2022-09-23T03:47:07.056Z,8.70
2022-09-23T03:49:37.309Z,8.60
2022-09-23T03:52:04.337Z,8.60
2022-09-23T03:54:31.443Z,8.60
2022-09-23T03:57:00.471Z,8.70
2022-09-23T03:59:28.034Z,8.70
2022-09-23T04:01:55.691Z,8.70
2022-09-23T04:04:22.697Z,8.70
2022-09-23T04:06:49.568Z,8.70
2022-09-23T04:09:16.964Z,8.60
2022-09-23T04:11:43.840Z,8.70
2022-09-23T04:14:12.246Z,8.70
2022-09-23T04:16:39.276Z,8.60
2022-09-23T04:19:10.848Z,8.70
2022-09-23T04:21:39.198Z,8.70
2022-09-23T04:24:06.510Z,8.60
2022-09-23T04:26:34.169Z,8.50
2022-09-23T04:29:01.099Z,8.30
2022-09-23T04:31:28.753Z,8.30
2022-09-23T04:33:56.344Z,8.30
2022-09-23T04:36:23.506Z,8.20
2022-09-23T04:38:51.230Z,8.20
2022-09-23T04:41:19.472Z,8.30
2022-09-23T04:43:46.528Z,8.30
2022-09-23T04:46:15.350Z,8.40
2022-09-23T04:48:43.009Z,8.50
2022-09-23T04:51:13.016Z,8.40
2022-09-23T04:53:41.700Z,8.20
2022-09-23T04:56:14.347Z,7.80
2022-09-23T04:58:42.251Z,7.70
2022-09-23T05:01:11.463Z,7.60
2022-09-23T05:03:38.932Z,7.60
2022-09-23T05:06:06.386Z,7.60
2022-09-23T05:08:33.592Z,7.60
2022-09-23T05:11:02.877Z,7.60
2022-09-23T05:13:29.795Z,7.50
2022-09-23T05:16:01.740Z,7.60
2022-09-23T05:18:31.476Z,7.70
2022-09-23T05:20:58.631Z,7.70
2022-09-23T05:23:27.221Z,7.60
2022-09-23T05:25:59.294Z,7.70
2022-09-23T05:28:32.275Z,7.70
2022-09-23T05:31:05.967Z,7.70
2022-09-23T05:33:34.293Z,7.60
2022-09-23T05:36:01.558Z,7.60
2022-09-23T05:38:29.486Z,7.60
2022-09-23T05:41:01.184Z,7.70
2022-09-23T05:43:28.650Z,7.80
2022-09-23T05:46:13.310Z,7.80
2022-09-23T05:48:41.116Z,7.80
2022-09-23T05:51:13.023Z,7.80
2022-09-23T05:53:41.695Z,7.80
2022-09-23T05:56:08.630Z,7.70
2022-09-23T05:58:35.564Z,7.80
2022-09-23T06:01:13.069Z,7.90
2022-09-23T06:03:40.475Z,7.90
2022-09-23T06:06:08.016Z,7.80
2022-09-23T06:08:35.069Z,7.80
2022-09-23T06:11:07.715Z,7.70
2022-09-23T06:13:39.277Z,7.80
2022-09-23T06:16:08.143Z,7.80
2022-09-23T06:18:35.813Z,8.00
2022-09-23T06:21:03.505Z,8.00
2022-09-23T06:23:30.915Z,8.10
2022-09-23T06:26:02.175Z,8.30
2022-09-23T06:28:32.238Z,8.50
2022-09-23T06:31:06.080Z,8.70
2022-09-23T06:33:37.277Z,8.90
2022-09-23T06:36:06.692Z,9.10
2022-09-23T06:38:34.303Z,9.30
2022-09-23T06:41:03.309Z,9.60
2022-09-23T06:43:30.707Z,9.70
2022-09-23T06:46:00.386Z,9.80
2022-09-23T06:48:28.622Z,10.00
2022-09-23T06:50:59.696Z,10.20
2022-09-23T06:53:26.635Z,10.40
2022-09-23T06:56:02.531Z,10.50
2022-09-23T06:58:31.765Z,10.60
2022-09-23T07:01:10.638Z,10.50
2022-09-23T07:03:38.422Z,10.30
2022-09-23T07:06:06.594Z,10.10
2022-09-23T07:08:34.980Z,10.00
2022-09-23T07:11:05.160Z,9.80
2022-09-23T07:13:33.559Z,9.80
2022-09-23T07:16:04.703Z,9.80
2022-09-23T07:18:36.702Z,9.70
2022-09-23T07:21:18.553Z,9.60
2022-09-23T07:23:47.720Z,9.60
2022-09-23T07:26:15.653Z,9.60
2022-09-23T07:28:43.213Z,9.70
2022-09-23T07:31:14.450Z,9.70
2022-09-23T07:33:44.264Z,9.80
2022-09-23T07:36:18.246Z,9.90
2022-09-23T07:38:46.155Z,9.90
2022-09-23T07:41:18.328Z,9.90
2022-09-23T07:43:46.391Z,9.80
2022-09-23T07:46:16.920Z,9.90
2022-09-23T07:48:45.873Z,10.00
2022-09-23T07:51:18.645Z,10.10
2022-09-23T07:53:49.942Z,10.00
2022-09-23T07:56:19.164Z,10.10
2022-09-23T07:58:47.152Z,10.10
2022-09-23T08:01:14.260Z,10.20
2022-09-23T08:03:41.250Z,10.20
2022-09-23T08:06:10.388Z,10.20
2022-09-23T08:08:45.994Z,10.30
2022-09-23T08:11:14.971Z,10.30
2022-09-23T08:13:42.646Z,10.40
2022-09-23T08:16:10.255Z,10.40
2022-09-23T08:18:37.333Z,10.40
2022-09-23T08:21:04.860Z,10.50
2022-09-23T08:23:33.676Z,10.50
2022-09-23T08:26:07.619Z,10.60
2022-09-23T08:28:37.265Z,10.60
2022-09-23T08:31:04.635Z,10.70
2022-09-23T08:33:31.796Z,10.70
2022-09-23T08:36:03.077Z,10.80
2022-09-23T08:38:30.465Z,10.80
2022-09-23T08:41:32.899Z,10.80
2022-09-23T08:44:07.041Z,10.90
2022-09-23T08:46:39.823Z,10.90
2022-09-23T08:49:12.427Z,10.80
2022-09-23T08:51:46.173Z,10.80
2022-09-23T08:54:16.359Z,10.80
2022-09-23T08:56:49.085Z,10.90
2022-09-23T08:59:28.844Z,10.90
2022-09-23T09:02:01.266Z,10.90
2022-09-23T09:04:37.087Z,10.90
2022-09-23T09:07:35.372Z,11.00
2022-09-23T09:10:06.622Z,11.10
2022-09-23T09:13:07.623Z,11.20
2022-09-23T09:15:51.500Z,11.30
2022-09-23T09:18:20.051Z,11.40
2022-09-23T09:21:10.017Z,11.50
2022-09-23T09:23:57.435Z,11.50
2022-09-23T09:26:32.930Z,11.70
2022-09-23T09:29:23.743Z,11.90
2022-09-23T09:31:57.756Z,12.00
2022-09-23T09:34:30.639Z,12.10
2022-09-23T09:37:33.059Z,12.30
2022-09-23T09:40:00.363Z,12.50
2022-09-23T09:42:41.403Z,12.70
2022-09-23T09:45:15.303Z,12.90
2022-09-23T09:47:47.453Z,13.20
2022-09-23T09:50:21.735Z,13.20
2022-09-23T09:52:49.326Z,13.30
2022-09-23T09:55:25.400Z,13.30
2022-09-23T09:58:05.781Z,13.40
2022-09-23T10:00:47.902Z,13.60
2022-09-23T10:03:14.793Z,13.50
2022-09-23T10:05:44.965Z,13.50
2022-09-23T10:08:32.210Z,13.70
2022-09-23T10:10:59.047Z,14.50
2022-09-23T10:13:27.510Z,15.10
2022-09-23T10:15:56.046Z,15.10
2022-09-23T10:18:33.756Z,15.20
2022-09-23T10:21:08.634Z,15.30
2022-09-23T10:23:41.437Z,15.40
2022-09-23T10:26:10.294Z,15.30
2022-09-23T10:28:50.681Z,15.20
2022-09-23T10:31:28.222Z,15.30
2022-09-23T10:33:59.821Z,15.20
2022-09-23T10:36:28.406Z,15.40
2022-09-23T10:39:31.845Z,15.30
2022-09-23T10:42:21.846Z,15.50
2022-09-23T10:45:39.827Z,15.80
2022-09-23T10:48:27.509Z,16.20
2022-09-23T10:50:57.564Z,16.80
2022-09-23T10:53:42.122Z,16.80
2022-09-23T10:56:23.027Z,16.80
2022-09-23T10:58:55.408Z,17.10
2022-09-23T11:01:59.141Z,17.40
2022-09-23T11:04:51.586Z,17.50
2022-09-23T11:07:37.080Z,17.70
2022-09-23T11:10:44.896Z,17.60
2022-09-23T11:13:42.526Z,17.60
2022-09-23T11:16:38.997Z,17.30
2022-09-23T11:19:34.587Z,17.10
2022-09-23T11:22:23.196Z,17.00
2022-09-23T11:25:11.131Z,17.10
2022-09-23T11:27:53.166Z,17.40
2022-09-23T11:30:21.152Z,17.60
2022-09-23T11:33:14.182Z,17.50
2022-09-23T11:35:55.308Z,17.50
2022-09-23T11:38:28.112Z,17.90
2022-09-23T11:41:18.722Z,18.80
2022-09-23T11:43:52.284Z,18.60
2022-09-23T11:46:34.679Z,18.40
2022-09-23T11:49:15.599Z,18.50
2022-09-23T11:52:10.660Z,18.70
2022-09-23T11:54:51.134Z,18.80
2022-09-23T11:57:42.831Z,19.80
2022-09-23T12:00:20.299Z,20.10
2022-09-23T12:03:05.942Z,20.60
2022-09-23T12:05:47.442Z,20.20
2022-09-23T12:08:32.547Z,20.10
2022-09-23T12:11:34.339Z,19.80
2022-09-23T12:14:38.637Z,19.00
2022-09-23T12:17:38.999Z,18.50
2022-09-23T12:20:33.780Z,18.20
2022-09-23T12:23:24.403Z,18.10
2022-09-23T12:25:57.912Z,18.00
2022-09-23T12:28:38.042Z,17.80
2022-09-23T12:31:10.100Z,17.60
2022-09-23T12:33:38.760Z,17.40
2022-09-23T12:36:12.266Z,17.20
2022-09-23T12:38:48.643Z,16.90
2022-09-23T12:41:29.793Z,16.60
2022-09-23T12:44:15.785Z,16.60
2022-09-23T12:46:46.795Z,16.70
2022-09-23T12:49:28.842Z,16.60
2022-09-23T12:52:10.882Z,16.50
2022-09-23T12:54:39.252Z,16.70
2022-09-23T12:57:30.843Z,16.90
2022-09-23T13:00:12.977Z,17.10
2022-09-23T13:02:44.147Z,17.00
2022-09-23T13:05:44.170Z,16.80
2022-09-23T13:08:23.747Z,16.60
2022-09-23T13:10:58.790Z,16.30
2022-09-23T13:13:41.915Z,16.30
2022-09-23T13:16:21.945Z,16.10
2022-09-23T13:18:56.471Z,15.90
2022-09-23T13:21:41.880Z,15.70
2022-09-23T13:24:25.047Z,15.70
2022-09-23T13:27:08.328Z,15.50
2022-09-23T13:29:50.220Z,14.80
2022-09-23T13:32:20.820Z,14.50
2022-09-23T13:35:06.795Z,14.40
2022-09-23T13:37:42.918Z,14.20
2022-09-23T13:40:29.915Z,14.10
2022-09-23T13:43:02.264Z,14.10
2022-09-23T13:45:31.465Z,14.10
2022-09-23T13:48:13.517Z,14.20
2022-09-23T13:50:47.773Z,14.30
2022-09-23T13:53:31.120Z,14.60
2022-09-23T13:56:06.250Z,15.00
2022-09-23T13:58:34.861Z,15.30
2022-09-23T14:01:02.176Z,15.40
2022-09-23T14:03:37.034Z,15.50
2022-09-23T14:06:11.042Z,15.70
2022-09-23T14:08:45.347Z,15.80
2022-09-23T14:11:21.625Z,16.00
2022-09-23T14:13:55.061Z,16.60
2022-09-23T14:16:26.986Z,17.30
2022-09-23T14:18:59.489Z,17.60
2022-09-23T14:21:40.610Z,17.60
2022-09-23T14:24:18.271Z,17.60
2022-09-23T14:26:52.596Z,17.40
2022-09-23T14:29:24.546Z,17.30
2022-09-23T14:31:57.297Z,17.00
2022-09-23T14:34:49.202Z,16.90
2022-09-23T14:37:37.270Z,16.70
2022-09-23T14:40:11.236Z,16.60
2022-09-23T14:42:59.678Z,16.50
2022-09-23T14:45:30.536Z,16.50
2022-09-23T14:48:01.322Z,16.40
2022-09-23T14:50:37.894Z,16.30
2022-09-23T14:53:18.534Z,16.20
2022-09-23T14:55:46.843Z,16.10
2022-09-23T14:58:18.772Z,16.00
2022-09-23T15:01:00.079Z,15.90
2022-09-23T15:03:28.726Z,15.80
2022-09-23T15:06:09.272Z,15.70
2022-09-23T15:08:36.991Z,15.70
2022-09-23T15:11:08.141Z,15.70
2022-09-23T15:13:40.701Z,15.70
2022-09-23T15:16:08.212Z,15.70
2022-09-23T15:18:37.600Z,15.60
2022-09-23T15:21:08.910Z,15.50
2022-09-23T15:23:41.710Z,15.40
2022-09-23T15:26:15.804Z,15.40
2022-09-23T15:28:43.801Z,15.40
2022-09-23T15:31:18.758Z,15.50
2022-09-23T15:33:50.552Z,15.60
2022-09-23T15:36:26.363Z,15.70
2022-09-23T15:38:56.101Z,15.70
2022-09-23T15:41:24.465Z,15.80
2022-09-23T15:43:51.599Z,15.80
2022-09-23T15:46:22.703Z,15.70
2022-09-23T15:49:16.215Z,15.60
2022-09-23T15:51:43.184Z,15.60
2022-09-23T15:54:12.552Z,15.60
2022-09-23T15:56:39.778Z,15.60
2022-09-23T15:59:06.706Z,15.50
2022-09-23T16:01:36.629Z,15.40
2022-09-23T16:04:04.598Z,15.40
2022-09-23T16:06:32.383Z,15.30
2022-09-23T16:08:59.251Z,15.20
2022-09-23T16:11:31.949Z,15.30
2022-09-23T16:14:01.775Z,15.20
2022-09-23T16:16:28.851Z,15.20
2022-09-23T16:18:55.832Z,15.10
2022-09-23T16:21:26.395Z,15.10
2022-09-23T16:23:55.746Z,14.90
2022-09-23T16:26:39.796Z,14.70
2022-09-23T16:29:06.866Z,14.60
2022-09-23T16:31:33.944Z,14.50
2022-09-23T16:34:02.370Z,14.50
2022-09-23T16:36:41.160Z,14.60
2022-09-23T16:39:11.156Z,14.50
2022-09-23T16:41:39.198Z,14.50
2022-09-23T16:44:08.616Z,14.50
2022-09-23T16:46:35.919Z,14.40
2022-09-23T16:49:03.112Z,14.50
2022-09-23T16:51:38.685Z,14.60
2022-09-23T16:54:11.862Z,14.60
2022-09-23T16:56:44.576Z,14.40
2022-09-23T16:59:16.025Z,14.40
2022-09-23T17:02:02.398Z,14.30
2022-09-23T17:04:29.533Z,14.20
2022-09-23T17:06:56.748Z,14.00
2022-09-23T17:09:26.907Z,14.00
2022-09-23T17:12:26.895Z,13.90
2022-09-23T17:14:54.156Z,14.00
2022-09-23T17:17:21.363Z,13.90
2022-09-23T17:19:48.294Z,13.90
2022-09-23T17:22:15.164Z,13.80
2022-09-23T17:24:42.879Z,13.80
2022-09-23T17:27:09.828Z,13.60
2022-09-23T17:29:36.716Z,13.60
2022-09-23T17:32:05.042Z,13.60
2022-09-23T17:34:33.458Z,13.60
2022-09-23T17:37:00.699Z,13.60
2022-09-23T17:39:27.615Z,13.60
2022-09-23T17:41:57.291Z,13.60
2022-09-23T17:44:24.299Z,13.60
2022-09-23T17:46:51.267Z,13.50
2022-09-23T17:49:18.346Z,13.50
2022-09-23T17:51:45.200Z,13.50
2022-09-23T17:54:12.210Z,13.40
2022-09-23T17:56:39.116Z,13.40
2022-09-23T17:59:06.078Z,13.20
2022-09-23T18:01:35.109Z,13.20
2022-09-23T18:04:05.739Z,13.10
2022-09-23T18:06:38.123Z,13.00
2022-09-23T18:09:07.291Z,12.90
2022-09-23T18:11:39.837Z,12.90
2022-09-23T18:14:13.054Z,12.80
2022-09-23T18:16:41.688Z,12.70
2022-09-23T18:19:11.979Z,12.70
2022-09-23T18:21:41.221Z,12.60
2022-09-23T18:26:59.642Z,12.50
2022-09-23T18:29:26.783Z,12.50
2022-09-23T18:31:53.896Z,12.40
2022-09-23T18:34:21.134Z,12.40
2022-09-23T18:36:48.102Z,12.40
2022-09-23T18:39:15.030Z,12.40
2022-09-23T18:41:42.133Z,12.40
2022-09-23T18:44:09.755Z,12.40
2022-09-23T18:46:37.150Z,12.30
2022-09-23T18:49:23.143Z,12.20
2022-09-23T18:51:54.482Z,12.20
2022-09-23T18:54:23.146Z,12.10
2022-09-23T18:56:52.601Z,12.10
2022-09-23T18:59:21.363Z,12.10
2022-09-23T19:01:50.223Z,12.00
2022-09-23T19:04:20.531Z,12.00
2022-09-23T19:06:48.131Z,12.00
2022-09-23T19:09:16.546Z,11.90
2022-09-23T19:11:44.456Z,11.80
2022-09-23T19:14:12.525Z,11.80
2022-09-23T19:16:40.900Z,11.80
2022-09-23T19:19:08.593Z,11.70
2022-09-23T19:21:35.750Z,11.60
2022-09-23T19:24:06.393Z,11.50
2022-09-23T19:26:37.644Z,11.40
2022-09-23T19:29:08.457Z,11.30
2022-09-23T19:31:40.212Z,11.20
2022-09-23T19:34:11.665Z,11.10
2022-09-23T19:36:40.501Z,11.00
2022-09-23T19:39:22.302Z,10.80
2022-09-23T19:41:50.774Z,10.80
2022-09-23T19:44:19.918Z,10.80
2022-09-23T19:46:55.265Z,10.80
2022-09-23T19:49:24.287Z,10.80
2022-09-23T19:51:52.029Z,10.90
2022-09-23T19:54:21.877Z,10.90
2022-09-23T19:56:49.705Z,10.90
2022-09-23T19:59:19.129Z,10.90
2022-09-23T20:01:47.871Z,11.00
2022-09-23T20:04:15.856Z,11.00
2022-09-23T20:06:43.393Z,11.10
2022-09-23T20:09:10.388Z,11.00
2022-09-23T20:11:37.326Z,11.00
2022-09-23T20:14:06.256Z,11.00
2022-09-23T20:16:35.623Z,11.10
2022-09-23T20:19:04.606Z,11.00
2022-09-23T20:21:31.576Z,11.10
2022-09-23T20:23:58.778Z,11.00
2022-09-23T20:26:44.237Z,10.90
2022-09-23T20:29:11.421Z,10.80
2022-09-23T20:31:40.411Z,10.80
2022-09-23T20:34:08.369Z,10.80
2022-09-23T20:36:36.107Z,10.70
2022-09-23T20:39:08.208Z,10.70
2022-09-23T20:41:37.963Z,10.70
2022-09-23T20:44:08.084Z,10.70
2022-09-23T20:46:35.959Z,10.60
2022-09-23T20:49:03.975Z,10.60
2022-09-23T20:51:33.387Z,10.60
2022-09-23T20:54:01.069Z,10.60
2022-09-23T20:56:28.705Z,10.60
2022-09-23T20:59:00.354Z,10.60
2022-09-23T21:01:27.812Z,10.60
2022-09-23T21:03:56.022Z,10.60
2022-09-23T21:06:26.350Z,10.50
2022-09-23T21:08:54.679Z,10.50
2022-09-23T21:11:22.057Z,10.50
2022-09-23T21:13:51.169Z,10.50
2022-09-23T21:16:22.216Z,10.50
2022-09-23T21:18:50.555Z,10.50
2022-09-23T21:21:19.588Z,10.40
2022-09-23T21:23:47.784Z,10.40
2022-09-23T21:26:19.391Z,10.40
2022-09-23T21:28:50.670Z,10.30
2022-09-23T21:31:23.363Z,10.40
2022-09-23T21:33:59.225Z,10.30
2022-09-23T21:36:28.262Z,10.30
2022-09-23T21:38:56.161Z,10.20
2022-09-23T21:41:23.842Z,10.20
2022-09-23T21:43:51.208Z,10.20
2022-09-23T21:46:20.546Z,10.20
2022-09-23T21:49:02.316Z,10.20
2022-09-23T21:51:34.332Z,10.20
2022-09-23T21:54:01.274Z,10.10
2022-09-23T21:56:30.509Z,10.00
2022-09-23T21:58:59.770Z,9.90
2022-09-23T22:01:29.496Z,9.90
2022-09-23T22:04:09.574Z,9.80
2022-09-23T22:06:38.371Z,9.70
2022-09-23T22:09:08.945Z,9.70
2022-09-23T22:11:55.816Z,9.60
2022-09-23T22:14:26.030Z,9.50
2022-09-23T22:16:57.799Z,9.50
2022-09-23T22:19:26.711Z,9.50
2022-09-23T22:21:54.116Z,9.50
2022-09-23T22:24:21.110Z,9.50
2022-09-23T22:26:48.031Z,9.50
2022-09-23T22:29:34.624Z,9.50
2022-09-23T22:32:21.669Z,9.50
2022-09-23T22:34:51.600Z,9.50
2022-09-23T22:37:21.513Z,9.50
2022-09-23T22:39:48.409Z,9.50
2022-09-23T22:42:15.563Z,9.40
2022-09-23T22:44:42.525Z,9.40
2022-09-23T22:47:10.244Z,9.40
2022-09-23T22:49:37.216Z,9.40
2022-09-23T22:52:09.184Z,9.30
2022-09-23T22:54:36.430Z,9.30
2022-09-23T22:57:09.428Z,9.20
2022-09-23T22:59:37.512Z,9.20
2022-09-23T23:02:05.367Z,9.10
2022-09-23T23:04:33.947Z,9.10
2022-09-23T23:07:00.802Z,9.10
2022-09-23T23:09:27.676Z,9.10
2022-09-23T23:11:54.626Z,9.10
2022-09-23T23:14:21.534Z,9.00
2022-09-23T23:16:48.450Z,9.10
2022-09-23T23:19:17.262Z,9.00
2022-09-23T23:21:45.532Z,9.00
2022-09-23T23:24:23.163Z,9.00
2022-09-23T23:26:51.361Z,9.00
2022-09-23T23:29:20.839Z,8.90
2022-09-23T23:31:48.585Z,8.90
2022-09-23T23:34:22.244Z,8.90
2022-09-23T23:36:55.320Z,8.80
2022-09-23T23:39:24.042Z,8.80
2022-09-23T23:41:55.368Z,8.90
2022-09-23T23:44:23.908Z,8.90
2022-09-23T23:46:51.424Z,8.80
2022-09-23T23:49:18.435Z,8.80
2022-09-23T23:51:45.440Z,8.80
2022-09-23T23:54:12.843Z,8.80
2022-09-23T23:56:39.771Z,8.80
2022-09-23T23:59:06.755Z,8.80
